sensor_id;sensor_type;location;lat;lon;timestamp;P1;durP1;ratioP1;P2;durP2;ratioP2
72573;SDS011;60603;52.548;13.420;2023-05-10T00:01:05;6.93;;;4.03;;
72573;SDS011;60603;52.548;13.420;2023-05-10T00:03:30;7.35;;;3.80;;
72573;SDS011;60603;52.548;13.420;2023-05-10T00:05:56;8.30;;;4.25;;
72573;SDS011;60603;52.548;13.420;2023-05-10T00:08:22;6.95;;;4.00;;
72573;SDS011;60603;52.548;13.420;2023-05-10T00:10:47;8.38;;;3.80;;
72573;SDS011;60603;52.548;13.420;2023-05-10T00:13:13;5.93;;;3.72;;
72573;SDS011;60603;52.548;13.420;2023-05-10T00:15:39;7.43;;;3.53;;
72573;SDS011;60603;52.548;13.420;2023-05-10T00:18:05;9.07;;;3.97;;
72573;SDS011;60603;52.548;13.420;2023-05-10T00:20:31;8.18;;;4.38;;
72573;SDS011;60603;52.548;13.420;2023-05-10T00:22:56;7.88;;;4.55;;
72573;SDS011;60603;52.548;13.420;2023-05-10T00:25:22;8.52;;;4.15;;
72573;SDS011;60603;52.548;13.420;2023-05-10T00:27:48;6.57;;;3.58;;
72573;SDS011;60603;52.548;13.420;2023-05-10T00:30:14;7.22;;;3.85;;
72573;SDS011;60603;52.548;13.420;2023-05-10T00:32:40;6.47;;;3.70;;
72573;SDS011;60603;52.548;13.420;2023-05-10T00:35:06;7.55;;;3.83;;
72573;SDS011;60603;52.548;13.420;2023-05-10T00:37:32;6.65;;;3.28;;
72573;SDS011;60603;52.548;13.420;2023-05-10T00:39:59;6.82;;;3.88;;
72573;SDS011;60603;52.548;13.420;2023-05-10T00:42:28;9.48;;;4.28;;
72573;SDS011;60603;52.548;13.420;2023-05-10T00:44:53;9.20;;;4.07;;
72573;SDS011;60603;52.548;13.420;2023-05-10T00:47:19;12.43;;;4.28;;
72573;SDS011;60603;52.548;13.420;2023-05-10T00:49:45;11.73;;;4.75;;
72573;SDS011;60603;52.548;13.420;2023-05-10T00:52:11;7.75;;;3.70;;
72573;SDS011;60603;52.548;13.420;2023-05-10T00:54:37;7.03;;;3.83;;
72573;SDS011;60603;52.548;13.420;2023-05-10T00:57:02;9.70;;;4.20;;
72573;SDS011;60603;52.548;13.420;2023-05-10T00:59:28;6.35;;;3.80;;
72573;SDS011;60603;52.548;13.420;2023-05-10T01:01:54;8.55;;;4.50;;
72573;SDS011;60603;52.548;13.420;2023-05-10T01:04:20;7.72;;;4.43;;
72573;SDS011;60603;52.548;13.420;2023-05-10T01:06:51;6.60;;;4.22;;
72573;SDS011;60603;52.548;13.420;2023-05-10T01:09:18;8.77;;;4.00;;
72573;SDS011;60603;52.548;13.420;2023-05-10T01:11:44;6.60;;;4.07;;
72573;SDS011;60603;52.548;13.420;2023-05-10T01:14:10;7.80;;;4.68;;
72573;SDS011;60603;52.548;13.420;2023-05-10T01:16:37;9.95;;;4.18;;
72573;SDS011;60603;52.548;13.420;2023-05-10T01:19:04;7.05;;;4.10;;
72573;SDS011;60603;52.548;13.420;2023-05-10T01:21:41;7.53;;;4.20;;
72573;SDS011;60603;52.548;13.420;2023-05-10T01:27:11;7.30;;;4.40;;
72573;SDS011;60603;52.548;13.420;2023-05-10T01:32:43;7.75;;;3.90;;
72573;SDS011;60603;52.548;13.420;2023-05-10T01:35:34;7.32;;;3.92;;
72573;SDS011;60603;52.548;13.420;2023-05-10T01:41:07;7.10;;;3.67;;
72573;SDS011;60603;52.548;13.420;2023-05-10T01:47:02;7.72;;;3.78;;
72573;SDS011;60603;52.548;13.420;2023-05-10T01:49:32;7.97;;;4.20;;
72573;SDS011;60603;52.548;13.420;2023-05-10T01:52:09;6.78;;;3.90;;
72573;SDS011;60603;52.548;13.420;2023-05-10T01:54:38;7.18;;;3.70;;
72573;SDS011;60603;52.548;13.420;2023-05-10T01:57:05;6.05;;;3.53;;
72573;SDS011;60603;52.548;13.420;2023-05-10T01:59:34;8.32;;;4.20;;
72573;SDS011;60603;52.548;13.420;2023-05-10T02:02:10;8.32;;;4.68;;
72573;SDS011;60603;52.548;13.420;2023-05-10T02:04:37;7.53;;;3.92;;
72573;SDS011;60603;52.548;13.420;2023-05-10T02:07:04;7.50;;;3.80;;
72573;SDS011;60603;52.548;13.420;2023-05-10T02:09:32;7.80;;;3.88;;
72573;SDS011;60603;52.548;13.420;2023-05-10T02:11:59;6.85;;;3.83;;
72573;SDS011;60603;52.548;13.420;2023-05-10T02:14:28;7.53;;;4.53;;
72573;SDS011;60603;52.548;13.420;2023-05-10T02:16:58;7.43;;;3.88;;
72573;SDS011;60603;52.548;13.420;2023-05-10T02:19:24;8.77;;;3.70;;
72573;SDS011;60603;52.548;13.420;2023-05-10T02:21:50;7.25;;;4.00;;
72573;SDS011;60603;52.548;13.420;2023-05-10T02:24:17;8.82;;;4.10;;
72573;SDS011;60603;52.548;13.420;2023-05-10T02:26:43;6.28;;;3.60;;
72573;SDS011;60603;52.548;13.420;2023-05-10T02:29:09;7.55;;;3.83;;
72573;SDS011;60603;52.548;13.420;2023-05-10T02:31:37;7.28;;;3.97;;
72573;SDS011;60603;52.548;13.420;2023-05-10T02:34:04;6.85;;;3.92;;
72573;SDS011;60603;52.548;13.420;2023-05-10T02:36:31;7.97;;;3.70;;
72573;SDS011;60603;52.548;13.420;2023-05-10T02:38:58;7.15;;;3.80;;
72573;SDS011;60603;52.548;13.420;2023-05-10T02:41:25;10.05;;;3.95;;
72573;SDS011;60603;52.548;13.420;2023-05-10T02:43:51;9.38;;;3.78;;
72573;SDS011;60603;52.548;13.420;2023-05-10T02:46:21;6.40;;;3.42;;
72573;SDS011;60603;52.548;13.420;2023-05-10T02:48:47;7.13;;;3.97;;
72573;SDS011;60603;52.548;13.420;2023-05-10T02:51:13;6.15;;;3.95;;
72573;SDS011;60603;52.548;13.420;2023-05-10T02:53:43;11.15;;;3.60;;
72573;SDS011;60603;52.548;13.420;2023-05-10T02:56:19;8.15;;;3.88;;
72573;SDS011;60603;52.548;13.420;2023-05-10T02:58:54;7.88;;;4.05;;
72573;SDS011;60603;52.548;13.420;2023-05-10T03:01:20;8.23;;;3.88;;
72573;SDS011;60603;52.548;13.420;2023-05-10T03:03:46;6.60;;;4.07;;
72573;SDS011;60603;52.548;13.420;2023-05-10T03:06:11;9.07;;;4.28;;
72573;SDS011;60603;52.548;13.420;2023-05-10T03:08:37;7.18;;;3.72;;
72573;SDS011;60603;52.548;13.420;2023-05-10T03:13:33;8.82;;;3.42;;
72573;SDS011;60603;52.548;13.420;2023-05-10T03:16:10;9.88;;;4.13;;
72573;SDS011;60603;52.548;13.420;2023-05-10T03:18:53;8.88;;;3.83;;
72573;SDS011;60603;52.548;13.420;2023-05-10T03:21:22;7.68;;;3.90;;
72573;SDS011;60603;52.548;13.420;2023-05-10T03:23:53;6.45;;;3.88;;
72573;SDS011;60603;52.548;13.420;2023-05-10T03:26:26;9.65;;;4.50;;
72573;SDS011;60603;52.548;13.420;2023-05-10T03:28:52;6.47;;;3.53;;
72573;SDS011;60603;52.548;13.420;2023-05-10T03:31:18;8.57;;;3.80;;
72573;SDS011;60603;52.548;13.420;2023-05-10T03:33:48;7.78;;;4.18;;
72573;SDS011;60603;52.548;13.420;2023-05-10T03:36:14;6.82;;;3.38;;
72573;SDS011;60603;52.548;13.420;2023-05-10T03:38:40;14.27;;;4.18;;
72573;SDS011;60603;52.548;13.420;2023-05-10T03:41:05;9.55;;;3.47;;
72573;SDS011;60603;52.548;13.420;2023-05-10T03:43:31;8.23;;;3.90;;
72573;SDS011;60603;52.548;13.420;2023-05-10T03:45:57;6.72;;;3.72;;
72573;SDS011;60603;52.548;13.420;2023-05-10T03:48:23;8.05;;;4.13;;
72573;SDS011;60603;52.548;13.420;2023-05-10T03:50:48;8.48;;;3.75;;
72573;SDS011;60603;52.548;13.420;2023-05-10T03:53:17;9.80;;;3.92;;
72573;SDS011;60603;52.548;13.420;2023-05-10T03:55:42;10.52;;;3.67;;
72573;SDS011;60603;52.548;13.420;2023-05-10T03:58:11;9.13;;;3.75;;
72573;SDS011;60603;52.548;13.420;2023-05-10T04:00:37;7.03;;;4.22;;
72573;SDS011;60603;52.548;13.420;2023-05-10T04:03:09;7.05;;;3.33;;
72573;SDS011;60603;52.548;13.420;2023-05-10T04:05:35;6.60;;;3.42;;
72573;SDS011;60603;52.548;13.420;2023-05-10T04:08:02;6.53;;;3.72;;
72573;SDS011;60603;52.548;13.420;2023-05-10T04:10:27;12.35;;;4.10;;
72573;SDS011;60603;52.548;13.420;2023-05-10T04:12:53;9.75;;;3.95;;
72573;SDS011;60603;52.548;13.420;2023-05-10T04:15:19;6.53;;;3.03;;
72573;SDS011;60603;52.548;13.420;2023-05-10T04:17:45;8.73;;;3.35;;
72573;SDS011;60603;52.548;13.420;2023-05-10T04:20:11;5.50;;;3.20;;
72573;SDS011;60603;52.548;13.420;2023-05-10T04:22:37;10.02;;;4.15;;
72573;SDS011;60603;52.548;13.420;2023-05-10T04:25:03;9.35;;;3.50;;
72573;SDS011;60603;52.548;13.420;2023-05-10T04:27:30;8.27;;;3.83;;
72573;SDS011;60603;52.548;13.420;2023-05-10T04:29:56;7.93;;;3.65;;
72573;SDS011;60603;52.548;13.420;2023-05-10T04:32:22;8.20;;;3.72;;
72573;SDS011;60603;52.548;13.420;2023-05-10T04:34:47;9.77;;;3.80;;
72573;SDS011;60603;52.548;13.420;2023-05-10T04:37:13;6.88;;;2.95;;
72573;SDS011;60603;52.548;13.420;2023-05-10T04:39:39;8.73;;;3.65;;
72573;SDS011;60603;52.548;13.420;2023-05-10T04:42:05;7.25;;;3.35;;
72573;SDS011;60603;52.548;13.420;2023-05-10T04:44:31;8.93;;;3.80;;
72573;SDS011;60603;52.548;13.420;2023-05-10T04:46:57;7.55;;;3.78;;
72573;SDS011;60603;52.548;13.420;2023-05-10T04:49:23;7.35;;;3.15;;
72573;SDS011;60603;52.548;13.420;2023-05-10T04:51:48;8.10;;;3.60;;
72573;SDS011;60603;52.548;13.420;2023-05-10T04:54:14;5.93;;;3.17;;
72573;SDS011;60603;52.548;13.420;2023-05-10T04:56:40;7.30;;;3.30;;
72573;SDS011;60603;52.548;13.420;2023-05-10T04:59:06;10.55;;;3.80;;
72573;SDS011;60603;52.548;13.420;2023-05-10T05:01:32;10.05;;;3.92;;
72573;SDS011;60603;52.548;13.420;2023-05-10T05:03:57;8.10;;;3.55;;
72573;SDS011;60603;52.548;13.420;2023-05-10T05:06:23;6.63;;;3.30;;
72573;SDS011;60603;52.548;13.420;2023-05-10T05:08:50;9.93;;;3.40;;
72573;SDS011;60603;52.548;13.420;2023-05-10T05:11:19;7.15;;;3.28;;
72573;SDS011;60603;52.548;13.420;2023-05-10T05:13:44;6.15;;;3.20;;
72573;SDS011;60603;52.548;13.420;2023-05-10T05:16:10;6.03;;;3.13;;
72573;SDS011;60603;52.548;13.420;2023-05-10T05:18:36;6.90;;;3.00;;
72573;SDS011;60603;52.548;13.420;2023-05-10T05:21:02;6.95;;;2.80;;
72573;SDS011;60603;52.548;13.420;2023-05-10T05:23:28;7.30;;;2.90;;
72573;SDS011;60603;52.548;13.420;2023-05-10T05:25:54;7.78;;;3.20;;
72573;SDS011;60603;52.548;13.420;2023-05-10T05:28:20;6.25;;;2.97;;
72573;SDS011;60603;52.548;13.420;2023-05-10T05:30:46;7.13;;;3.38;;
72573;SDS011;60603;52.548;13.420;2023-05-10T05:33:13;6.43;;;2.67;;
72573;SDS011;60603;52.548;13.420;2023-05-10T05:35:41;7.43;;;2.90;;
72573;SDS011;60603;52.548;13.420;2023-05-10T05:38:09;6.90;;;3.00;;
72573;SDS011;60603;52.548;13.420;2023-05-10T05:40:35;5.72;;;2.63;;
72573;SDS011;60603;52.548;13.420;2023-05-10T05:43:01;6.05;;;2.60;;
72573;SDS011;60603;52.548;13.420;2023-05-10T05:45:27;7.47;;;2.95;;
72573;SDS011;60603;52.548;13.420;2023-05-10T05:47:52;6.13;;;2.47;;
72573;SDS011;60603;52.548;13.420;2023-05-10T05:50:18;6.97;;;2.67;;
72573;SDS011;60603;52.548;13.420;2023-05-10T05:52:44;6.15;;;2.38;;
72573;SDS011;60603;52.548;13.420;2023-05-10T05:55:09;5.57;;;2.67;;
72573;SDS011;60603;52.548;13.420;2023-05-10T05:57:35;7.90;;;2.60;;
72573;SDS011;60603;52.548;13.420;2023-05-10T06:00:01;6.80;;;2.38;;
72573;SDS011;60603;52.548;13.420;2023-05-10T06:02:28;6.93;;;2.75;;
72573;SDS011;60603;52.548;13.420;2023-05-10T06:04:54;4.68;;;2.50;;
72573;SDS011;60603;52.548;13.420;2023-05-10T06:07:19;6.43;;;2.63;;
72573;SDS011;60603;52.548;13.420;2023-05-10T06:09:45;7.38;;;2.53;;
72573;SDS011;60603;52.548;13.420;2023-05-10T06:12:11;5.25;;;3.00;;
72573;SDS011;60603;52.548;13.420;2023-05-10T06:14:37;6.20;;;2.40;;
72573;SDS011;60603;52.548;13.420;2023-05-10T06:17:03;5.20;;;2.63;;
72573;SDS011;60603;52.548;13.420;2023-05-10T06:19:30;5.82;;;2.45;;
72573;SDS011;60603;52.548;13.420;2023-05-10T06:21:56;5.85;;;2.50;;
72573;SDS011;60603;52.548;13.420;2023-05-10T06:24:21;5.35;;;2.40;;
72573;SDS011;60603;52.548;13.420;2023-05-10T06:26:47;5.35;;;2.33;;
72573;SDS011;60603;52.548;13.420;2023-05-10T06:29:15;5.93;;;2.38;;
72573;SDS011;60603;52.548;13.420;2023-05-10T06:31:40;5.93;;;2.40;;
72573;SDS011;60603;52.548;13.420;2023-05-10T06:34:06;4.90;;;2.60;;
72573;SDS011;60603;52.548;13.420;2023-05-10T06:36:33;4.35;;;2.10;;
72573;SDS011;60603;52.548;13.420;2023-05-10T06:38:59;6.15;;;2.40;;
72573;SDS011;60603;52.548;13.420;2023-05-10T06:41:25;4.60;;;2.05;;
72573;SDS011;60603;52.548;13.420;2023-05-10T06:43:50;6.00;;;2.00;;
72573;SDS011;60603;52.548;13.420;2023-05-10T06:46:16;4.35;;;2.05;;
72573;SDS011;60603;52.548;13.420;2023-05-10T06:48:42;5.25;;;2.55;;
72573;SDS011;60603;52.548;13.420;2023-05-10T06:51:08;3.97;;;2.00;;
72573;SDS011;60603;52.548;13.420;2023-05-10T06:53:33;5.78;;;2.13;;
72573;SDS011;60603;52.548;13.420;2023-05-10T06:55:59;5.47;;;2.05;;
72573;SDS011;60603;52.548;13.420;2023-05-10T06:58:25;5.50;;;2.22;;
72573;SDS011;60603;52.548;13.420;2023-05-10T07:00:50;4.65;;;2.13;;
72573;SDS011;60603;52.548;13.420;2023-05-10T07:03:16;5.40;;;2.35;;
72573;SDS011;60603;52.548;13.420;2023-05-10T07:05:42;5.43;;;2.20;;
72573;SDS011;60603;52.548;13.420;2023-05-10T07:08:07;7.07;;;2.40;;
72573;SDS011;60603;52.548;13.420;2023-05-10T07:10:33;5.63;;;2.40;;
72573;SDS011;60603;52.548;13.420;2023-05-10T07:12:59;5.57;;;2.15;;
72573;SDS011;60603;52.548;13.420;2023-05-10T07:15:26;5.40;;;2.42;;
72573;SDS011;60603;52.548;13.420;2023-05-10T07:17:52;8.43;;;2.50;;
72573;SDS011;60603;52.548;13.420;2023-05-10T07:20:18;5.50;;;2.03;;
72573;SDS011;60603;52.548;13.420;2023-05-10T07:22:43;8.50;;;2.25;;
72573;SDS011;60603;52.548;13.420;2023-05-10T07:25:09;7.03;;;2.50;;
72573;SDS011;60603;52.548;13.420;2023-05-10T07:27:35;5.65;;;2.30;;
72573;SDS011;60603;52.548;13.420;2023-05-10T07:30:01;4.68;;;2.25;;
72573;SDS011;60603;52.548;13.420;2023-05-10T07:32:27;7.22;;;2.67;;
72573;SDS011;60603;52.548;13.420;2023-05-10T07:34:53;6.32;;;2.70;;
72573;SDS011;60603;52.548;13.420;2023-05-10T07:37:19;4.55;;;2.28;;
72573;SDS011;60603;52.548;13.420;2023-05-10T07:39:45;6.22;;;2.33;;
72573;SDS011;60603;52.548;13.420;2023-05-10T07:42:10;5.70;;;1.95;;
72573;SDS011;60603;52.548;13.420;2023-05-10T07:44:36;4.10;;;2.00;;
72573;SDS011;60603;52.548;13.420;2023-05-10T07:47:02;5.15;;;2.50;;
72573;SDS011;60603;52.548;13.420;2023-05-10T07:49:28;5.43;;;2.22;;
72573;SDS011;60603;52.548;13.420;2023-05-10T07:51:53;4.13;;;2.10;;
72573;SDS011;60603;52.548;13.420;2023-05-10T07:54:19;4.85;;;2.20;;
72573;SDS011;60603;52.548;13.420;2023-05-10T07:56:45;6.03;;;2.70;;
72573;SDS011;60603;52.548;13.420;2023-05-10T07:59:16;4.20;;;2.10;;
72573;SDS011;60603;52.548;13.420;2023-05-10T08:01:42;5.65;;;2.25;;
72573;SDS011;60603;52.548;13.420;2023-05-10T08:04:08;5.50;;;2.22;;
72573;SDS011;60603;52.548;13.420;2023-05-10T08:06:34;4.15;;;2.28;;
72573;SDS011;60603;52.548;13.420;2023-05-10T08:09:00;5.10;;;2.20;;
72573;SDS011;60603;52.548;13.420;2023-05-10T08:11:25;5.95;;;2.42;;
72573;SDS011;60603;52.548;13.420;2023-05-10T08:13:53;5.43;;;2.45;;
72573;SDS011;60603;52.548;13.420;2023-05-10T08:16:19;5.75;;;2.35;;
72573;SDS011;60603;52.548;13.420;2023-05-10T08:18:45;5.03;;;2.22;;
72573;SDS011;60603;52.548;13.420;2023-05-10T08:21:12;3.92;;;2.13;;
72573;SDS011;60603;52.548;13.420;2023-05-10T08:23:39;5.57;;;2.28;;
72573;SDS011;60603;52.548;13.420;2023-05-10T08:26:05;4.95;;;2.10;;
72573;SDS011;60603;52.548;13.420;2023-05-10T08:28:31;5.57;;;2.03;;
72573;SDS011;60603;52.548;13.420;2023-05-10T08:30:56;8.45;;;2.58;;
72573;SDS011;60603;52.548;13.420;2023-05-10T08:33:22;5.47;;;2.13;;
72573;SDS011;60603;52.548;13.420;2023-05-10T08:35:48;5.82;;;2.58;;
72573;SDS011;60603;52.548;13.420;2023-05-10T08:38:13;6.57;;;2.70;;
72573;SDS011;60603;52.548;13.420;2023-05-10T08:40:41;4.70;;;2.08;;
72573;SDS011;60603;52.548;13.420;2023-05-10T08:43:08;6.05;;;2.33;;
72573;SDS011;60603;52.548;13.420;2023-05-10T08:45:38;7.53;;;2.40;;
72573;SDS011;60603;52.548;13.420;2023-05-10T08:48:06;4.53;;;2.30;;
72573;SDS011;60603;52.548;13.420;2023-05-10T08:50:36;4.25;;;2.03;;
72573;SDS011;60603;52.548;13.420;2023-05-10T08:53:04;5.75;;;2.42;;
72573;SDS011;60603;52.548;13.420;2023-05-10T08:55:32;6.88;;;2.13;;
72573;SDS011;60603;52.548;13.420;2023-05-10T08:57:59;4.43;;;2.08;;
72573;SDS011;60603;52.548;13.420;2023-05-10T09:00:25;5.85;;;1.98;;
72573;SDS011;60603;52.548;13.420;2023-05-10T09:02:52;4.18;;;2.28;;
72573;SDS011;60603;52.548;13.420;2023-05-10T09:05:17;5.03;;;1.83;;
72573;SDS011;60603;52.548;13.420;2023-05-10T09:07:43;6.60;;;2.35;;
72573;SDS011;60603;52.548;13.420;2023-05-10T09:10:09;5.55;;;2.08;;
72573;SDS011;60603;52.548;13.420;2023-05-10T09:12:36;5.20;;;2.00;;
72573;SDS011;60603;52.548;13.420;2023-05-10T09:15:02;6.07;;;2.10;;
72573;SDS011;60603;52.548;13.420;2023-05-10T09:17:29;5.75;;;2.20;;
72573;SDS011;60603;52.548;13.420;2023-05-10T09:19:58;5.72;;;2.25;;
72573;SDS011;60603;52.548;13.420;2023-05-10T09:22:26;4.38;;;1.90;;
72573;SDS011;60603;52.548;13.420;2023-05-10T09:29:59;6.38;;;2.38;;
72573;SDS011;60603;52.548;13.420;2023-05-10T09:32:42;4.25;;;1.98;;
72573;SDS011;60603;52.548;13.420;2023-05-10T09:35:09;10.23;;;2.65;;
72573;SDS011;60603;52.548;13.420;2023-05-10T09:37:36;5.88;;;2.10;;
72573;SDS011;60603;52.548;13.420;2023-05-10T09:40:05;3.83;;;1.98;;
72573;SDS011;60603;52.548;13.420;2023-05-10T09:42:33;5.00;;;2.40;;
72573;SDS011;60603;52.548;13.420;2023-05-10T09:45:03;6.32;;;2.03;;
72573;SDS011;60603;52.548;13.420;2023-05-10T09:47:36;5.03;;;2.78;;
72573;SDS011;60603;52.548;13.420;2023-05-10T09:50:02;6.05;;;2.03;;
72573;SDS011;60603;52.548;13.420;2023-05-10T09:52:30;4.63;;;2.35;;
72573;SDS011;60603;52.548;13.420;2023-05-10T09:54:56;8.57;;;2.33;;
72573;SDS011;60603;52.548;13.420;2023-05-10T09:57:23;3.75;;;1.80;;
72573;SDS011;60603;52.548;13.420;2023-05-10T09:59:49;4.85;;;2.13;;
72573;SDS011;60603;52.548;13.420;2023-05-10T10:02:16;4.00;;;2.00;;
72573;SDS011;60603;52.548;13.420;2023-05-10T10:04:42;5.00;;;2.67;;
72573;SDS011;60603;52.548;13.420;2023-05-10T10:07:08;4.40;;;2.10;;
72573;SDS011;60603;52.548;13.420;2023-05-10T10:09:34;5.35;;;2.05;;
72573;SDS011;60603;52.548;13.420;2023-05-10T10:12:01;4.38;;;1.90;;
72573;SDS011;60603;52.548;13.420;2023-05-10T10:14:27;5.57;;;2.53;;
72573;SDS011;60603;52.548;13.420;2023-05-10T10:16:53;6.28;;;2.22;;
72573;SDS011;60603;52.548;13.420;2023-05-10T10:19:20;4.85;;;2.03;;
72573;SDS011;60603;52.548;13.420;2023-05-10T10:21:49;4.65;;;2.28;;
72573;SDS011;60603;52.548;13.420;2023-05-10T10:24:16;3.95;;;2.05;;
72573;SDS011;60603;52.548;13.420;2023-05-10T10:26:45;7.47;;;2.72;;
72573;SDS011;60603;52.548;13.420;2023-05-10T10:31:57;4.97;;;1.92;;
72573;SDS011;60603;52.548;13.420;2023-05-10T10:34:27;5.07;;;2.05;;
72573;SDS011;60603;52.548;13.420;2023-05-10T10:36:54;7.80;;;2.30;;
72573;SDS011;60603;52.548;13.420;2023-05-10T10:39:21;6.32;;;2.45;;
72573;SDS011;60603;52.548;13.420;2023-05-10T10:41:55;4.45;;;2.08;;
72573;SDS011;60603;52.548;13.420;2023-05-10T10:49:37;5.28;;;1.98;;
72573;SDS011;60603;52.548;13.420;2023-05-10T10:55:04;5.95;;;2.17;;
72573;SDS011;60603;52.548;13.420;2023-05-10T10:57:32;4.10;;;2.00;;
72573;SDS011;60603;52.548;13.420;2023-05-10T11:03:06;4.68;;;2.20;;
72573;SDS011;60603;52.548;13.420;2023-05-10T11:08:16;7.30;;;2.17;;
72573;SDS011;60603;52.548;13.420;2023-05-10T11:13:28;6.28;;;2.10;;
72573;SDS011;60603;52.548;13.420;2023-05-10T11:16:13;4.43;;;2.33;;
72573;SDS011;60603;52.548;13.420;2023-05-10T11:18:53;5.60;;;2.00;;
72573;SDS011;60603;52.548;13.420;2023-05-10T11:21:19;4.63;;;2.00;;
72573;SDS011;60603;52.548;13.420;2023-05-10T11:23:52;5.00;;;2.00;;
72573;SDS011;60603;52.548;13.420;2023-05-10T11:26:22;7.32;;;2.40;;
72573;SDS011;60603;52.548;13.420;2023-05-10T11:28:54;6.38;;;2.38;;
72573;SDS011;60603;52.548;13.420;2023-05-10T11:31:20;5.60;;;2.17;;
72573;SDS011;60603;52.548;13.420;2023-05-10T11:33:47;4.40;;;2.42;;
72573;SDS011;60603;52.548;13.420;2023-05-10T11:36:20;7.68;;;2.20;;
72573;SDS011;60603;52.548;13.420;2023-05-10T11:38:47;11.07;;;2.92;;
72573;SDS011;60603;52.548;13.420;2023-05-10T11:41:13;5.53;;;3.00;;
72573;SDS011;60603;52.548;13.420;2023-05-10T11:43:40;6.80;;;2.40;;
72573;SDS011;60603;52.548;13.420;2023-05-10T11:46:10;6.35;;;2.22;;
72573;SDS011;60603;52.548;13.420;2023-05-10T11:48:40;4.18;;;2.20;;
72573;SDS011;60603;52.548;13.420;2023-05-10T11:51:07;4.15;;;2.38;;
72573;SDS011;60603;52.548;13.420;2023-05-10T11:53:33;6.88;;;2.45;;
72573;SDS011;60603;52.548;13.420;2023-05-10T11:56:02;4.97;;;2.17;;
72573;SDS011;60603;52.548;13.420;2023-05-10T11:58:38;6.57;;;2.53;;
72573;SDS011;60603;52.548;13.420;2023-05-10T12:01:05;5.00;;;2.30;;
72573;SDS011;60603;52.548;13.420;2023-05-10T12:03:32;5.32;;;2.20;;
72573;SDS011;60603;52.548;13.420;2023-05-10T12:05:58;9.25;;;2.53;;
72573;SDS011;60603;52.548;13.420;2023-05-10T12:08:25;6.32;;;2.60;;
72573;SDS011;60603;52.548;13.420;2023-05-10T12:10:52;6.78;;;2.10;;
72573;SDS011;60603;52.548;13.420;2023-05-10T12:13:19;9.05;;;2.47;;
72573;SDS011;60603;52.548;13.420;2023-05-10T12:15:45;8.65;;;2.45;;
72573;SDS011;60603;52.548;13.420;2023-05-10T12:18:12;8.82;;;2.35;;
72573;SDS011;60603;52.548;13.420;2023-05-10T12:20:39;6.32;;;2.20;;
72573;SDS011;60603;52.548;13.420;2023-05-10T12:23:05;5.82;;;2.38;;
72573;SDS011;60603;52.548;13.420;2023-05-10T12:25:34;7.78;;;2.85;;
72573;SDS011;60603;52.548;13.420;2023-05-10T12:28:04;7.53;;;2.33;;
72573;SDS011;60603;52.548;13.420;2023-05-10T12:30:33;6.45;;;2.67;;
72573;SDS011;60603;52.548;13.420;2023-05-10T12:33:00;6.60;;;2.03;;
72573;SDS011;60603;52.548;13.420;2023-05-10T12:35:26;4.28;;;2.08;;
72573;SDS011;60603;52.548;13.420;2023-05-10T12:37:53;5.07;;;1.98;;
72573;SDS011;60603;52.548;13.420;2023-05-10T12:40:19;7.55;;;2.17;;
72573;SDS011;60603;52.548;13.420;2023-05-10T12:42:44;5.90;;;2.10;;
72573;SDS011;60603;52.548;13.420;2023-05-10T12:45:10;6.63;;;2.28;;
72573;SDS011;60603;52.548;13.420;2023-05-10T12:47:36;8.57;;;2.42;;
72573;SDS011;60603;52.548;13.420;2023-05-10T12:50:02;7.35;;;2.42;;
72573;SDS011;60603;52.548;13.420;2023-05-10T12:52:30;4.65;;;2.10;;
72573;SDS011;60603;52.548;13.420;2023-05-10T12:54:57;4.60;;;2.40;;
72573;SDS011;60603;52.548;13.420;2023-05-10T12:57:24;3.90;;;1.90;;
72573;SDS011;60603;52.548;13.420;2023-05-10T12:59:50;4.43;;;2.10;;
72573;SDS011;60603;52.548;13.420;2023-05-10T13:02:16;9.10;;;2.78;;
72573;SDS011;60603;52.548;13.420;2023-05-10T13:04:43;4.93;;;2.13;;
72573;SDS011;60603;52.548;13.420;2023-05-10T13:07:10;5.00;;;2.00;;
72573;SDS011;60603;52.548;13.420;2023-05-10T13:09:35;4.65;;;2.22;;
72573;SDS011;60603;52.548;13.420;2023-05-10T13:12:03;8.23;;;2.50;;
72573;SDS011;60603;52.548;13.420;2023-05-10T13:14:29;6.38;;;2.20;;
72573;SDS011;60603;52.548;13.420;2023-05-10T13:16:55;3.50;;;2.00;;
72573;SDS011;60603;52.548;13.420;2023-05-10T13:19:20;8.68;;;2.67;;
72573;SDS011;60603;52.548;13.420;2023-05-10T13:21:46;11.77;;;2.20;;
72573;SDS011;60603;52.548;13.420;2023-05-10T13:24:12;7.85;;;2.63;;
72573;SDS011;60603;52.548;13.420;2023-05-10T13:26:40;7.10;;;2.13;;
72573;SDS011;60603;52.548;13.420;2023-05-10T13:29:06;4.82;;;2.08;;
72573;SDS011;60603;52.548;13.420;2023-05-10T13:31:33;9.15;;;2.03;;
72573;SDS011;60603;52.548;13.420;2023-05-10T13:33:59;6.15;;;2.00;;
72573;SDS011;60603;52.548;13.420;2023-05-10T13:36:25;7.70;;;2.42;;
72573;SDS011;60603;52.548;13.420;2023-05-10T13:38:51;3.88;;;1.92;;
72573;SDS011;60603;52.548;13.420;2023-05-10T13:41:17;4.82;;;2.30;;
72573;SDS011;60603;52.548;13.420;2023-05-10T13:43:43;4.13;;;2.22;;
72573;SDS011;60603;52.548;13.420;2023-05-10T13:46:09;6.75;;;1.98;;
72573;SDS011;60603;52.548;13.420;2023-05-10T13:48:34;5.07;;;2.20;;
72573;SDS011;60603;52.548;13.420;2023-05-10T13:51:02;4.53;;;2.05;;
72573;SDS011;60603;52.548;13.420;2023-05-10T13:53:28;5.30;;;2.05;;
72573;SDS011;60603;52.548;13.420;2023-05-10T13:55:54;5.55;;;2.22;;
72573;SDS011;60603;52.548;13.420;2023-05-10T13:58:19;5.55;;;2.30;;
72573;SDS011;60603;52.548;13.420;2023-05-10T14:00:45;6.20;;;2.88;;
72573;SDS011;60603;52.548;13.420;2023-05-10T14:03:11;7.47;;;2.22;;
72573;SDS011;60603;52.548;13.420;2023-05-10T14:05:37;5.10;;;2.13;;
72573;SDS011;60603;52.548;13.420;2023-05-10T14:08:02;6.18;;;2.40;;
72573;SDS011;60603;52.548;13.420;2023-05-10T14:10:29;4.25;;;1.85;;
72573;SDS011;60603;52.548;13.420;2023-05-10T14:12:55;6.57;;;2.00;;
72573;SDS011;60603;52.548;13.420;2023-05-10T14:15:21;3.90;;;1.65;;
72573;SDS011;60603;52.548;13.420;2023-05-10T14:17:47;6.30;;;2.10;;
72573;SDS011;60603;52.548;13.420;2023-05-10T14:20:13;4.20;;;1.98;;
72573;SDS011;60603;52.548;13.420;2023-05-10T14:22:38;5.65;;;2.42;;
72573;SDS011;60603;52.548;13.420;2023-05-10T14:25:05;7.38;;;3.15;;
72573;SDS011;60603;52.548;13.420;2023-05-10T14:27:31;4.68;;;2.10;;
72573;SDS011;60603;52.548;13.420;2023-05-10T14:29:58;9.52;;;4.13;;
72573;SDS011;60603;52.548;13.420;2023-05-10T14:32:23;3.60;;;1.77;;
72573;SDS011;60603;52.548;13.420;2023-05-10T14:34:50;5.00;;;2.72;;
72573;SDS011;60603;52.548;13.420;2023-05-10T14:37:15;5.97;;;2.25;;
72573;SDS011;60603;52.548;13.420;2023-05-10T14:39:41;4.55;;;2.50;;
72573;SDS011;60603;52.548;13.420;2023-05-10T14:42:08;5.15;;;1.90;;
72573;SDS011;60603;52.548;13.420;2023-05-10T14:44:34;4.30;;;2.20;;
72573;SDS011;60603;52.548;13.420;2023-05-10T14:46:59;4.25;;;2.47;;
72573;SDS011;60603;52.548;13.420;2023-05-10T14:49:25;5.40;;;1.83;;
72573;SDS011;60603;52.548;13.420;2023-05-10T14:51:51;6.68;;;2.08;;
72573;SDS011;60603;52.548;13.420;2023-05-10T14:54:17;5.60;;;2.00;;
72573;SDS011;60603;52.548;13.420;2023-05-10T14:56:43;4.95;;;2.20;;
72573;SDS011;60603;52.548;13.420;2023-05-10T14:59:09;4.40;;;2.00;;
72573;SDS011;60603;52.548;13.420;2023-05-10T15:01:34;5.18;;;2.50;;
72573;SDS011;60603;52.548;13.420;2023-05-10T15:04:03;4.15;;;1.95;;
72573;SDS011;60603;52.548;13.420;2023-05-10T15:06:31;3.85;;;2.00;;
72573;SDS011;60603;52.548;13.420;2023-05-10T15:08:58;7.63;;;2.50;;
72573;SDS011;60603;52.548;13.420;2023-05-10T15:11:24;4.63;;;2.20;;